Time;durP1;ratioP1;P1;durP2;ratioP2;P2;SDS_P1;SDS_P2;PMS_P1;PMS_P2;Temp;Humidity;BMP_temperature;BMP_pressure;BME280_temperature;BME280_humidity;BME280_pressure;Samples;Min_cycle;Max_cycle;Signal;HPM_P1;HPM_P2
2024/03/25 11:44:43;;;;;;;;;;;;;;;;;;;;;
2024/03/25 11:47:09;;;;;;;;;;;;;;;;;;;;;
2024/03/25 11:49:28;;;;;;;1.00;0.63;;;14.40;99.90;;;;;;4069732;29;20184;-93
2024/03/25 11:51:49;;;;;;;1.75;1.15;;;14.50;99.90;;;;;;4069505;29;20286;-94
2024/03/25 11:53:53;;;;;;;1.23;0.80;;;14.90;99.90;;;;;;4069492;29;20184;-93
2024/03/25 11:56:07;;;;;;;0.82;0.43;;;15.10;99.90;;;;;;4069551;29;20264;-94
2024/03/25 11:58:24;;;;;;;2.17;0.50;;;15.10;99.90;;;;;;4039420;29;20170;-93
2024/03/25 12:00:34;;;;;;;6.38;0.45;;;15.20;99.90;;;;;;4053938;29;20192;-95
2024/03/25 12:02:54;;;;;;;1.45;0.60;;;15.50;99.90;;;;;;4069604;29;20176;-95
2024/03/25 12:05:00;;;;;;;1.83;0.70;;;15.50;99.90;;;;;;4069346;29;20187;-95
2024/03/25 12:07:03;;;;;;;1.92;0.47;;;15.30;99.90;;;;;;4069140;29;20176;-93
2024/03/25 12:11:55;;;;;;;1.95;0.40;;;14.60;99.90;;;;;;4069379;29;20634;-93
2024/03/25 12:14:00;;;;;;;0.60;0.38;;;14.30;99.90;;;;;;4069388;29;20181;-93
2024/03/25 12:16:06;;;;;;;4.30;0.75;;;14.20;99.90;;;;;;4038516;29;20235;-94
2024/03/25 12:18:16;;;;;;;0.60;0.40;;;14.10;99.90;;;;;;4054171;29;20229;-94
2024/03/25 12:20:25;;;;;;;1.27;0.35;;;13.60;99.90;;;;;;4053647;29;20296;-94
2024/03/25 12:22:27;;;;;;;1.45;0.50;;;14.00;99.90;;;;;;4069195;29;20180;-95
2024/03/25 12:24:51;;;;;;;4.43;0.95;;;14.10;99.90;;;;;;4055289;29;20177;-94
2024/03/25 12:26:52;;;;;;;2.95;0.90;;;14.30;99.90;;;;;;4069554;29;20180;-94
2024/03/25 12:29:08;;;;;;;1.50;0.60;;;14.30;99.90;;;;;;4068390;29;20232;-94
2024/03/25 12:31:26;;;;;;;;;;;;;;;;;;;;;
2024/03/25 12:34:16;;;;;;;1.67;0.70;;;14.40;99.90;;;;;;4070433;29;20176;-93
2024/03/25 12:36:30;;;;;;;;;;;;;;;;;;;;;
2024/03/25 12:39:20;;;;;;;2.97;1.10;;;14.70;99.90;;;;;;4068716;29;20646;-94
2024/03/25 12:41:26;;;;;;;1.27;0.47;;;15.10;99.90;;;;;;4069331;29;20196;-94
2024/03/25 12:43:29;;;;;;;3.85;0.85;;;15.40;99.90;;;;;;4069662;29;20177;-93
2024/03/25 12:45:55;;;;;;;;;;;;;;;;;;;;;
2024/03/25 12:47:59;;;;;;;1.40;0.73;;;14.90;99.90;;;;;;4053173;29;20695;-94
2024/03/25 12:50:08;;;;;;;3.00;0.70;;;15.30;99.90;;;;;;4068142;29;20200;-94
2024/03/25 12:52:15;;;;;;;3.70;0.90;;;15.40;99.90;;;;;;4038292;29;20537;-94
2024/03/25 12:54:50;;;;;;;2.22;0.88;;;15.80;99.90;;;;;;4052598;29;20176;-94
2024/03/25 12:57:42;;;;;;;;;;;;;;;;;;;;;
2024/03/25 12:59:46;;;;;;;2.65;0.80;;;14.90;99.90;;;;;;4049683;29;20177;-94
2024/03/25 13:01:54;;;;;;;1.63;0.70;;;14.80;99.90;;;;;;4053169;29;20180;-93
2024/03/25 13:04:05;;;;;;;1.73;0.60;;;14.80;99.90;;;;;;4068738;29;20176;-94
2024/03/25 13:06:06;;;;;;;1.90;0.90;;;14.90;99.90;;;;;;4053034;29;20220;-96
2024/03/25 13:08:10;;;;;;;1.48;0.50;;;14.70;99.90;;;;;;4052625;29;20260;-96
2024/03/25 13:10:19;;;;;;;2.20;0.68;;;14.50;99.90;;;;;;4037313;29;20712;-94
2024/03/25 13:12:23;;;;;;;1.10;0.47;;;14.50;99.90;;;;;;4037701;29;20185;-94
2024/03/25 13:14:33;;;;;;;3.90;0.80;;;14.00;99.90;;;;;;4052964;29;20235;-93
2024/03/25 13:16:35;;;;;;;2.75;0.93;;;13.40;99.90;;;;;;4052912;29;20181;-94
2024/03/25 13:18:43;;;;;;;1.17;0.70;;;13.30;99.90;;;;;;4053135;29;20175;-93
2024/03/25 13:20:49;;;;;;;5.05;0.85;;;13.30;99.90;;;;;;4037627;29;20225;-93
2024/03/25 13:22:59;;;;;;;1.40;0.70;;;13.40;99.90;;;;;;4053301;29;20177;-94
2024/03/25 13:25:00;;;;;;;2.00;0.50;;;13.70;99.90;;;;;;4068508;29;20222;-93
2024/03/25 13:27:10;;;;;;;3.72;0.57;;;13.70;99.90;;;;;;4052342;29;20255;-94
2024/03/25 13:29:16;;;;;;;3.38;0.50;;;13.80;99.90;;;;;;4052717;29;20177;-92
2024/03/25 13:31:28;;;;;;;2.03;0.50;;;13.90;99.90;;;;;;4052748;29;20559;-93
2024/03/25 13:33:49;;;;;;;0.93;0.40;;;14.00;99.90;;;;;;4067788;29;20184;-92
2024/03/25 13:36:01;;;;;;;0.93;0.40;;;13.90;99.90;;;;;;4068291;29;20247;-94
2024/03/25 13:38:05;;;;;;;1.52;0.50;;;13.60;99.90;;;;;;4052886;29;20184;-93
2024/03/25 13:40:18;;;;;;;1.88;0.60;;;13.60;99.90;;;;;;4068531;29;20196;-93
2024/03/25 13:42:46;;;;;;;1.15;0.60;;;13.70;99.90;;;;;;4066235;29;20179;-93
2024/03/25 13:44:50;;;;;;;1.60;0.50;;;13.80;99.90;;;;;;4037065;29;20190;-95
2024/03/25 13:46:58;;;;;;;7.25;1.38;;;14.10;99.90;;;;;;4068276;29;20184;-93
2024/03/25 13:49:02;;;;;;;2.78;1.05;;;14.50;99.90;;;;;;4052615;29;20193;-93
2024/03/25 13:51:08;;;;;;;5.50;0.70;;;14.70;99.90;;;;;;4052597;29;20549;-93
2024/03/25 13:53:09;;;;;;;2.97;0.60;;;14.70;99.90;;;;;;4037105;29;20181;-94
2024/03/25 13:55:16;;;;;;;2.60;0.70;;;14.60;99.90;;;;;;4052496;29;20191;-93
2024/03/25 13:57:22;;;;;;;7.75;0.60;;;14.60;99.90;;;;;;4056630;29;20183;-92
2024/03/25 13:59:23;;;;;;;1.02;0.47;;;14.70;99.90;;;;;;4052836;29;20204;-94
2024/03/25 14:01:26;;;;;;;2.30;0.55;;;14.70;99.90;;;;;;4052709;29;20707;-94
2024/03/25 14:03:30;;;;;;;2.45;0.60;;;14.40;99.90;;;;;;4052517;29;20184;-92
2024/03/25 14:05:38;;;;;;;1.15;0.50;;;14.20;99.90;;;;;;4037009;29;20264;-94
2024/03/25 14:07:39;;;;;;;3.65;0.63;;;14.00;99.90;;;;;;4071465;29;20248;-93
2024/03/25 14:09:40;;;;;;;1.98;0.45;;;14.00;99.90;;;;;;4055529;29;20173;-93
2024/03/25 14:11:45;;;;;;;1.95;0.52;;;14.10;99.90;;;;;;4040143;29;20177;-95
2024/03/25 14:13:48;;;;;;;2.00;0.40;;;14.60;99.90;;;;;;4055720;29;20218;-95
2024/03/25 14:15:50;;;;;;;0.80;0.47;;;14.90;99.90;;;;;;4055765;29;20177;-93
2024/03/25 14:17:58;;;;;;;1.05;0.50;;;15.30;99.90;;;;;;4040163;29;20181;-95
2024/03/25 14:20:06;;;;;;;0.77;0.40;;;15.10;99.90;;;;;;4040306;29;20189;-92
2024/03/25 14:22:09;;;;;;;0.98;0.45;;;15.10;99.90;;;;;;4055844;29;20216;-93
2024/03/25 14:24:21;;;;;;;1.75;0.43;;;14.90;99.90;;;;;;4055598;29;20176;-93
2024/03/25 14:26:32;;;;;;;1.60;0.45;;;14.80;99.90;;;;;;4040568;29;20205;-93
2024/03/25 14:28:33;;;;;;;25.67;3.33;;;15.00;99.90;;;;;;4055090;29;20263;-93
2024/03/25 14:30:33;;;;;;;1.90;0.63;;;14.60;99.90;;;;;;4055071;29;20276;-93
2024/03/25 14:32:34;;;;;;;2.92;0.70;;;14.30;99.90;;;;;;4070957;29;20714;-92
2024/03/25 14:34:38;;;;;;;0.95;0.25;;;14.00;99.90;;;;;;4055209;29;20179;-94
2024/03/25 14:36:43;;;;;;;1.65;0.55;;;13.70;99.90;;;;;;4055066;29;20720;-95
2024/03/25 14:38:48;;;;;;;1.20;0.50;;;13.70;99.90;;;;;;4039890;29;20166;-94
2024/03/25 14:40:50;;;;;;;0.65;0.40;;;13.80;99.90;;;;;;4039906;29;20669;-93
2024/03/25 14:42:51;;;;;;;1.00;0.47;;;13.50;99.90;;;;;;4040143;29;20176;-94
2024/03/25 14:44:54;;;;;;;3.33;0.50;;;13.40;99.90;;;;;;4055220;29;20264;-94
2024/03/25 14:46:55;;;;;;;2.15;0.40;;;13.50;99.90;;;;;;4039811;29;20193;-95
2024/03/25 14:48:56;;;;;;;5.25;0.75;;;13.70;99.90;;;;;;4055075;29;20229;-94
2024/03/25 14:50:57;;;;;;;1.23;0.43;;;13.80;99.90;;;;;;4055149;29;20293;-93
2024/03/25 14:52:57;;;;;;;2.00;0.50;;;14.00;99.90;;;;;;4039560;29;20659;-94
2024/03/25 14:55:01;;;;;;;2.10;0.82;;;14.30;99.90;;;;;;4070510;29;20280;-94
2024/03/25 14:57:02;;;;;;;2.20;0.70;;;14.30;99.90;;;;;;4055266;29;20573;-92
2024/03/25 14:59:05;;;;;;;2.28;0.68;;;14.10;99.90;;;;;;4055139;29;20188;-93
2024/03/25 15:01:08;;;;;;;3.03;0.90;;;13.90;99.90;;;;;;4039677;29;20193;-94
2024/03/25 15:03:09;;;;;;;3.55;0.93;;;13.80;99.90;;;;;;4055622;29;20177;-96
2024/03/25 15:05:10;;;;;;;0.50;0.30;;;13.50;99.90;;;;;;4054743;29;20244;-92
2024/03/25 15:07:11;;;;;;;1.00;0.52;;;13.40;99.90;;;;;;4055218;29;20209;-92
2024/03/25 15:09:14;;;;;;;1.27;0.50;;;13.50;99.90;;;;;;4039603;29;20177;-94
2024/03/25 15:11:15;;;;;;;0.73;0.43;;;13.40;99.90;;;;;;4054637;29;20201;-93
2024/03/25 15:13:15;;;;;;;2.65;0.55;;;13.60;99.90;;;;;;4055195;29;20185;-94
2024/03/25 15:15:16;;;;;;;1.10;0.30;;;13.50;99.90;;;;;;4054800;29;20242;-94
2024/03/25 15:17:20;;;;;;;5.25;0.63;;;13.60;99.90;;;;;;4054539;29;20180;-95
2024/03/25 15:19:21;;;;;;;1.30;0.57;;;13.60;99.90;;;;;;4070678;29;20172;-93
2024/03/25 15:21:22;;;;;;;1.08;0.28;;;13.80;99.90;;;;;;4054750;29;20220;-96
2024/03/25 15:23:25;;;;;;;2.75;0.38;;;13.90;99.90;;;;;;4039182;29;20652;-94
2024/03/25 15:25:29;;;;;;;2.55;0.60;;;14.10;99.90;;;;;;4038828;29;20238;-93
2024/03/25 15:27:30;;;;;;;2.53;0.55;;;14.10;99.90;;;;;;4054295;29;20199;-96
2024/03/25 15:29:34;;;;;;;1.45;0.45;;;14.10;99.90;;;;;;4054465;29;20233;-93
2024/03/25 15:31:39;;;;;;;1.15;0.32;;;14.20;99.90;;;;;;4054027;29;20236;-93
2024/03/25 15:33:50;;;;;;;2.13;0.40;;;14.50;99.90;;;;;;4055661;29;20191;-92
2024/03/25 15:36:11;;;;;;;0.40;0.28;;;14.30;99.90;;;;;;4069845;29;20200;-94
2024/03/25 15:38:12;;;;;;;2.38;0.73;;;14.00;99.90;;;;;;4070051;29;20227;-92
2024/03/25 15:40:18;;;;;;;1.52;0.38;;;14.00;99.90;;;;;;4038769;29;20221;-92
2024/03/25 15:42:28;;;;;;;2.33;0.40;;;14.20;99.90;;;;;;4054152;29;20263;-94
2024/03/25 15:44:37;;;;;;;0.95;0.30;;;14.30;99.90;;;;;;4039230;29;20705;-92
2024/03/25 15:46:40;;;;;;;0.93;0.38;;;14.20;99.90;;;;;;4054143;29;20221;-93
2024/03/25 15:48:43;;;;;;;6.72;0.50;;;14.20;99.90;;;;;;4053687;29;20192;-93
2024/03/25 15:50:43;;;;;;;1.50;0.43;;;14.10;99.90;;;;;;4038637;29;20334;-94
2024/03/25 15:52:44;;;;;;;2.40;0.32;;;14.10;99.90;;;;;;4053774;29;20169;-93
2024/03/25 15:54:51;;;;;;;1.00;0.22;;;14.00;99.90;;;;;;4038431;29;20224;-93
2024/03/25 15:56:51;;;;;;;0.57;0.30;;;14.00;99.90;;;;;;4069622;29;20179;-93
2024/03/25 15:58:55;;;;;;;1.85;0.40;;;14.10;99.90;;;;;;4038320;29;20645;-95
2024/03/25 16:00:58;;;;;;;0.40;0.20;;;13.90;99.90;;;;;;4038307;29;20189;-92
2024/03/25 16:03:01;;;;;;;2.13;0.38;;;13.90;99.90;;;;;;4038454;29;20181;-93
2024/03/25 16:05:05;;;;;;;1.90;0.75;;;13.80;99.90;;;;;;4053458;29;20653;-94
2024/03/25 16:07:08;;;;;;;0.60;0.30;;;13.60;99.90;;;;;;4038149;29;20182;-93
2024/03/25 16:09:16;;;;;;;0.85;0.38;;;13.60;99.90;;;;;;4069456;29;20165;-92
2024/03/25 16:11:17;;;;;;;0.73;0.50;;;13.70;99.90;;;;;;4069528;29;20289;-95
2024/03/25 16:13:18;;;;;;;0.60;0.40;;;13.70;99.90;;;;;;4038361;29;20174;-92
2024/03/25 16:15:19;;;;;;;6.25;0.52;;;13.40;99.90;;;;;;4035272;29;20640;-92
2024/03/25 16:17:20;;;;;;;2.25;0.60;;;13.40;99.90;;;;;;4022830;29;20183;-92
2024/03/25 16:19:21;;;;;;;1.23;0.43;;;13.30;99.90;;;;;;4038111;29;20313;-93
2024/03/25 16:21:23;;;;;;;4.15;0.63;;;13.20;99.90;;;;;;4022879;29;20204;-92
2024/03/25 16:23:26;;;;;;;2.42;0.60;;;13.20;99.90;;;;;;4038097;29;20177;-96
2024/03/25 16:25:30;;;;;;;0.98;0.50;;;13.30;99.90;;;;;;4038108;29;20221;-92
2024/03/25 16:27:31;;;;;;;3.28;0.80;;;13.30;99.90;;;;;;4022700;29;20224;-93
2024/03/25 16:29:32;;;;;;;0.52;0.28;;;13.30;99.90;;;;;;4037457;29;20177;-91
2024/03/25 16:31:35;;;;;;;4.43;0.50;;;13.20;99.90;;;;;;4053664;29;20285;-94
2024/03/25 16:33:38;;;;;;;1.80;0.30;;;13.00;99.90;;;;;;4053764;29;20264;-94
2024/03/25 16:35:41;;;;;;;2.97;0.47;;;13.00;99.90;;;;;;4046828;29;20177;-92
2024/03/25 16:37:42;;;;;;;2.40;0.50;;;12.90;99.90;;;;;;4053621;29;20184;-93
2024/03/25 16:39:50;;;;;;;1.35;0.90;;;12.90;99.90;;;;;;4069198;29;20172;-96
2024/03/25 16:41:56;;;;;;;0.65;0.30;;;13.10;99.90;;;;;;4053067;29;20543;-96
2024/03/25 16:44:06;;;;;;;0.68;0.35;;;13.00;99.90;;;;;;4053416;29;20173;-95
2024/03/25 16:46:19;;;;;;;1.05;0.50;;;12.90;99.90;;;;;;4054888;29;20769;-94
2024/03/25 16:48:22;;;;;;;1.42;0.40;;;12.90;99.90;;;;;;4038018;29;20193;-92
2024/03/25 16:50:33;;;;;;;1.58;0.55;;;13.00;99.90;;;;;;4037601;29;20196;-93
2024/03/25 16:52:47;;;;;;;;;;;;;;;;;;;;;
2024/03/25 16:55:03;;;;;;;4.10;0.38;;;12.70;99.90;;;;;;4053328;29;20211;-95
2024/03/25 16:57:05;;;;;;;5.32;0.38;;;12.60;99.90;;;;;;4053048;29;20208;-95
2024/03/25 16:59:11;;;;;;;4.00;0.43;;;12.50;99.90;;;;;;4053185;29;20169;-93
2024/03/25 17:01:12;;;;;;;2.58;0.47;;;12.40;99.90;;;;;;4068648;29;20295;-96
2024/03/25 17:03:13;;;;;;;1.35;0.50;;;12.40;99.90;;;;;;4068562;29;20533;-96
2024/03/25 17:05:14;;;;;;;0.85;0.38;;;12.30;99.90;;;;;;4052945;29;20212;-96
2024/03/25 17:07:15;;;;;;;1.63;0.40;;;12.20;99.90;;;;;;4052812;29;20276;-95
2024/03/25 17:09:37;;;;;;;1.20;0.40;;;12.20;99.90;;;;;;4052518;29;20177;-94
2024/03/25 17:11:54;;;;;;;2.17;0.70;;;12.20;99.90;;;;;;4052814;29;20173;-96
2024/03/25 17:14:10;;;;;;;1.30;0.50;;;12.30;99.90;;;;;;4052938;29;20181;-95
2024/03/25 17:16:23;;;;;;;1.95;0.30;;;12.20;99.90;;;;;;4038334;29;20237;-93
2024/03/25 17:18:32;;;;;;;2.70;0.60;;;12.20;99.90;;;;;;4037609;29;20296;-93
2024/03/25 17:20:44;;;;;;;1.77;1.08;;;12.10;99.90;;;;;;4052924;29;20195;-93
2024/03/25 17:22:47;;;;;;;1.77;0.70;;;12.10;99.90;;;;;;4037488;29;20185;-95
2024/03/25 17:24:53;;;;;;;10.90;0.82;;;12.00;99.90;;;;;;4052593;29;20177;-95
2024/03/25 17:27:04;;;;;;;1.02;0.43;;;12.00;99.90;;;;;;4054471;29;20177;-95
2024/03/25 17:29:39;;;;;;;1.65;0.68;;;11.90;99.90;;;;;;4072828;23;20228;-96
2024/03/25 17:31:56;;;;;;;1.92;0.47;;;11.90;99.90;;;;;;4037717;29;20181;-96
2024/03/25 17:34:27;;;;;;;1.42;0.63;;;11.90;99.90;;;;;;4038101;29;20205;-95
2024/03/25 17:36:43;;;;;;;2.55;0.90;;;11.80;99.90;;;;;;4019502;29;20603;-96
2024/03/25 17:38:52;;;;;;;1.08;0.30;;;11.80;99.90;;;;;;4021910;29;20201;-96
2024/03/25 17:41:04;;;;;;;1.60;0.52;;;11.70;99.90;;;;;;4022098;29;20201;-96
2024/03/25 17:43:10;;;;;;;1.27;0.30;;;11.70;99.90;;;;;;4052581;29;20259;-95
2024/03/25 17:45:22;;;;;;;4.32;0.65;;;11.60;99.90;;;;;;4021607;29;20178;-96
2024/03/25 17:47:32;;;;;;;1.23;0.70;;;11.60;99.90;;;;;;4037361;29;20177;-95
2024/03/25 17:49:36;;;;;;;1.67;0.50;;;11.60;99.90;;;;;;4037597;29;20180;-94
2024/03/25 17:52:16;;;;;;;;;;;;;;;;;;;;;
2024/03/25 17:54:20;;;;;;;1.27;0.52;;;11.40;99.90;;;;;;4037141;29;20189;-96
2024/03/25 17:56:21;;;;;;;1.98;0.80;;;11.40;99.90;;;;;;4036919;29;20176;-95
2024/03/25 17:58:27;;;;;;;1.80;0.40;;;11.40;99.90;;;;;;4021894;29;20230;-96
2024/03/25 18:00:31;;;;;;;1.52;0.57;;;11.40;99.90;;;;;;4021811;29;20198;-96
2024/03/25 18:02:53;;;;;;;2.80;0.93;;;11.30;99.90;;;;;;4022842;29;20178;-95
2024/03/25 18:05:09;;;;;;;;;;;;;;;;;;;;;
2024/03/25 18:07:28;;;;;;;3.83;0.88;;;11.30;99.90;;;;;;4037180;29;20765;-96
2024/03/25 18:10:30;;;;;;;;;;;;;;;;;;;;;
2024/03/25 18:13:18;;;;;;;1.52;0.82;;;11.20;99.90;;;;;;4038647;29;20182;-95
2024/03/25 18:15:38;;;;;;;1.27;0.70;;;11.10;99.90;;;;;;4051917;29;20204;-96
2024/03/25 18:17:59;;;;;;;0.85;0.68;;;11.10;99.90;;;;;;4023981;29;20182;-96
2024/03/25 18:20:19;;;;;;;4.30;1.08;;;11.10;99.90;;;;;;4036860;29;20201;-95
2024/03/25 18:22:43;;;;;;;1.00;0.60;;;11.00;99.90;;;;;;4021932;29;20622;-95
2024/03/25 18:25:04;;;;;;;3.38;0.90;;;11.00;99.90;;;;;;4036802;29;20197;-96
2024/03/25 18:27:47;;;;;;;;;;;;;;;;;;;;;
2024/03/25 18:29:53;;;;;;;1.77;0.80;;;10.90;99.90;;;;;;4036629;29;20212;-95
2024/03/25 18:32:56;;;;;;;3.78;0.93;;;10.90;99.90;;;;;;4037145;29;20177;-96
2024/03/25 18:35:20;;;;;;;1.30;0.63;;;10.90;99.90;;;;;;4036435;29;20285;-96
2024/03/25 18:37:21;;;;;;;3.22;0.50;;;10.90;99.90;;;;;;4036915;29;20182;-96
2024/03/25 18:39:46;;;;;;;1.65;0.50;;;10.80;99.90;;;;;;4021446;29;20698;-96
2024/03/25 18:42:03;;;;;;;5.68;0.82;;;10.80;99.90;;;;;;4013616;29;20376;-96
2024/03/25 18:44:35;;;;;;;2.17;1.00;;;10.80;99.90;;;;;;4021700;29;20223;-95
2024/03/25 18:46:57;;;;;;;6.43;0.88;;;10.70;99.90;;;;;;4230057;23;20331;-94
2024/03/25 18:48:58;;;;;;;3.22;1.10;;;10.70;99.90;;;;;;4046440;29;20178;-93
2024/03/25 18:51:02;;;;;;;3.35;1.20;;;10.70;99.90;;;;;;4061583;29;20235;-96
2024/03/25 18:53:06;;;;;;;1.80;0.85;;;10.70;99.90;;;;;;4062101;29;20660;-93
2024/03/25 19:02:09;;;;;;;0.85;0.55;;;10.60;99.90;;;;;;4074627;29;20280;-94
2024/03/25 19:04:23;;;;;;;2.53;0.88;;;10.60;99.90;;;;;;4080141;29;20221;-96
2024/03/25 19:06:52;;;;;;;8.23;1.23;;;10.60;99.90;;;;;;4075695;29;20233;-93
2024/03/25 19:09:10;;;;;;;2.92;1.25;;;10.60;99.90;;;;;;4047901;29;20177;-95
2024/03/25 19:14:10;;;;;;;;;;;;;;;;;;;;;
2024/03/25 19:20:31;;;;;;;2.28;1.00;;;10.50;99.90;;;;;;3974498;29;20181;-96
2024/03/25 19:22:39;;;;;;;4.57;1.20;;;10.40;99.90;;;;;;4235197;23;20214;-95
2024/03/25 19:25:53;;;;;;;2.38;1.20;;;10.40;99.90;;;;;;4093190;23;20176;-95
2024/03/25 19:29:21;;;;;;;2.25;0.90;;;10.40;99.90;;;;;;4064548;29;20196;-96
2024/03/25 19:31:53;;;;;;;6.32;1.30;;;10.40;99.90;;;;;;4017805;29;20352;-96
2024/03/25 19:34:33;;;;;;;;;;;;;;;;;;;;;
2024/03/25 19:36:53;;;;;;;1.95;1.00;;;10.30;99.90;;;;;;4082649;29;20172;-94
2024/03/25 19:39:46;;;;;;;;;;;;;;;;;;;;;
2024/03/25 19:43:00;;;;;;;2.47;0.90;;;10.40;99.90;;;;;;4095274;29;20171;-96
2024/03/25 19:45:47;;;;;;;2.90;1.30;;;10.30;99.90;;;;;;4074617;29;20202;-96
2024/03/25 19:52:02;;;;;;;;;;;;;;;;;;;;;
2024/03/25 19:58:51;;;;;;;;;;;;;;;;;;;;;
2024/03/25 20:01:31;;;;;;;6.50;1.20;;;10.20;99.90;;;;;;4095914;29;20196;-95
2024/03/25 20:04:29;;;;;;;2.55;1.15;;;10.20;99.90;;;;;;4066398;29;20187;-95
2024/03/25 20:13:10;;;;;;;2.80;1.23;;;10.10;99.90;;;;;;4051494;29;20234;-95
2024/03/25 20:18:55;;;;;;;2.10;1.20;;;10.10;99.90;;;;;;4035492;29;20187;-95
2024/03/25 20:24:28;;;;;;;;;;;;;;;;;;;;;
2024/03/25 20:27:25;;;;;;;;;;;;;;;;;;;;;
2024/03/25 20:30:12;;;;;;;3.85;1.15;;;10.00;99.90;;;;;;4062318;29;20272;-96
2024/03/25 20:33:00;;;;;;;;;;;;;;;;;;;;;
2024/03/25 20:35:35;;;;;;;4.28;1.15;;;10.00;99.90;;;;;;3961538;29;20211;-96
2024/03/25 20:38:19;;;;;;;2.22;1.20;;;10.00;99.90;;;;;;4034449;29;20221;-95
2024/03/25 20:40:46;;;;;;;1.95;1.10;;;10.00;99.90;;;;;;4042284;29;20199;-94
2024/03/25 20:42:53;;;;;;;2.33;1.23;;;9.90;99.90;;;;;;4147313;23;20263;-95
2024/03/25 20:45:24;;;;;;;2.00;1.02;;;10.00;99.90;;;;;;4081236;29;20236;-95
2024/03/25 20:47:32;;;;;;;4.65;1.70;;;10.00;99.90;;;;;;4094556;29;20207;-94
2024/03/25 20:49:39;;;;;;;3.17;1.30;;;9.90;99.90;;;;;;4094446;29;20638;-94
2024/03/25 20:51:43;;;;;;;4.38;1.38;;;9.90;99.90;;;;;;4060656;29;20308;-92
2024/03/25 20:53:54;;;;;;;4.45;1.60;;;9.90;99.90;;;;;;4051666;29;20237;-94
2024/03/25 20:56:00;;;;;;;6.60;2.25;;;9.90;99.90;;;;;;4063752;29;20196;-94
2024/03/25 20:58:06;;;;;;;3.45;1.77;;;9.90;99.90;;;;;;4061550;29;20169;-95
2024/03/25 21:00:09;;;;;;;3.65;1.70;;;10.00;99.90;;;;;;4079279;29;20223;-96
2024/03/25 21:02:20;;;;;;;4.80;1.33;;;10.00;99.90;;;;;;4062217;29;20177;-96
2024/03/25 21:04:21;;;;;;;5.10;1.60;;;10.00;99.90;;;;;;4076293;29;20176;-92
2024/03/25 21:06:40;;;;;;;5.53;1.75;;;10.00;99.90;;;;;;4077802;29;20245;-94
2024/03/25 21:08:41;;;;;;;2.65;1.27;;;9.90;99.90;;;;;;4078289;29;20176;-95
2024/03/25 21:10:46;;;;;;;3.13;1.35;;;10.00;99.90;;;;;;4064769;29;20177;-95
2024/03/25 21:12:47;;;;;;;3.25;1.55;;;10.00;99.90;;;;;;4092286;29;20206;-93
2024/03/25 21:14:57;;;;;;;3.08;1.35;;;10.10;99.90;;;;;;4061313;29;20181;-95
2024/03/25 21:17:20;;;;;;;2.97;1.20;;;10.30;99.90;;;;;;4071286;23;20224;-94
2024/03/25 21:19:34;;;;;;;2.40;1.15;;;10.30;99.90;;;;;;4047212;29;20166;-95
2024/03/25 21:21:35;;;;;;;7.03;2.15;;;10.10;99.90;;;;;;4048164;29;20221;-92
2024/03/25 21:23:36;;;;;;;2.08;1.23;;;10.10;99.90;;;;;;4061217;29;20184;-94
2024/03/25 21:25:41;;;;;;;5.55;1.65;;;10.20;99.90;;;;;;4046739;29;20212;-95
2024/03/25 21:27:45;;;;;;;4.32;1.75;;;10.20;99.90;;;;;;4030069;29;20190;-93
2024/03/25 21:29:46;;;;;;;2.38;1.52;;;10.20;99.90;;;;;;4078811;23;20205;-94
2024/03/25 21:31:47;;;;;;;3.28;1.65;;;10.10;99.90;;;;;;4051145;29;20173;-95
2024/03/25 21:33:57;;;;;;;4.53;1.30;;;10.30;99.90;;;;;;4031515;29;20219;-94
2024/03/25 21:36:15;;;;;;;3.05;0.77;;;10.50;99.90;;;;;;4061548;29;20181;-94
2024/03/25 21:38:31;;;;;;;2.58;1.23;;;10.80;99.90;;;;;;4072781;23;21697;-95
2024/03/25 21:40:32;;;;;;;4.00;1.67;;;11.00;99.90;;;;;;4048149;29;20280;-93
2024/03/25 21:42:36;;;;;;;3.80;1.42;;;11.10;99.90;;;;;;4147628;23;20221;-93
2024/03/25 21:44:37;;;;;;;3.90;1.38;;;11.40;99.90;;;;;;4065474;29;20172;-93
2024/03/25 21:46:38;;;;;;;3.83;1.77;;;11.40;99.90;;;;;;4064290;29;20216;-95
2024/03/25 21:48:40;;;;;;;3.55;1.30;;;11.20;99.90;;;;;;4065484;29;20271;-93
2024/03/25 21:50:59;;;;;;;3.92;1.80;;;11.10;99.90;;;;;;4062678;29;20239;-94
2024/03/25 21:53:03;;;;;;;3.15;1.25;;;11.20;99.90;;;;;;4063949;29;20181;-94
2024/03/25 21:55:10;;;;;;;3.28;1.50;;;11.10;99.90;;;;;;4060818;29;20570;-95
2024/03/25 21:57:14;;;;;;;3.50;1.60;;;11.00;99.90;;;;;;4067938;29;20232;-93
2024/03/25 21:59:15;;;;;;;3.60;1.60;;;10.90;99.90;;;;;;4051862;29;20196;-93
2024/03/25 22:01:19;;;;;;;4.72;1.50;;;10.80;99.90;;;;;;4057491;29;20185;-93
2024/03/25 22:03:21;;;;;;;2.47;1.40;;;10.70;99.90;;;;;;4082713;29;20191;-93
2024/03/25 22:05:23;;;;;;;4.38;1.98;;;10.50;99.90;;;;;;4066989;29;20161;-93
2024/03/25 22:07:27;;;;;;;6.10;2.97;;;10.40;99.90;;;;;;4063419;29;20181;-94
2024/03/25 22:09:40;;;;;;;6.38;2.22;;;10.30;99.90;;;;;;4066551;29;20183;-92
2024/03/25 22:11:47;;;;;;;9.17;2.10;;;10.20;99.90;;;;;;4084138;29;20216;-94
2024/03/25 22:13:48;;;;;;;6.60;1.88;;;10.00;99.90;;;;;;4061907;29;20185;-95
2024/03/25 22:16:02;;;;;;;3.77;1.60;;;10.00;99.90;;;;;;4078001;29;20191;-92
2024/03/25 22:18:03;;;;;;;6.03;1.90;;;9.80;99.90;;;;;;4078355;29;20196;-93
2024/03/25 22:20:08;;;;;;;2.95;1.50;;;9.80;99.90;;;;;;4066238;23;20241;-93
2024/03/25 22:22:08;;;;;;;5.07;1.92;;;9.80;99.90;;;;;;4044313;29;20208;-92
2024/03/25 22:24:20;;;;;;;4.38;1.80;;;9.90;99.90;;;;;;4114191;23;20195;-92
2024/03/25 22:26:23;;;;;;;2.63;1.27;;;9.80;99.90;;;;;;4098081;29;20203;-95
2024/03/25 22:28:25;;;;;;;7.82;1.48;;;9.80;99.90;;;;;;4098507;28;20174;-93
2024/03/25 22:30:26;;;;;;;2.75;1.30;;;9.80;99.90;;;;;;4084476;29;20195;-94
2024/03/25 22:32:33;;;;;;;6.18;2.60;;;9.50;99.90;;;;;;4085261;29;20575;-94
2024/03/25 22:34:54;;;;;;;2.55;1.20;;;9.50;99.90;;;;;;4051200;29;20177;-93
2024/03/25 22:37:01;;;;;;;1.88;1.05;;;9.40;99.90;;;;;;4067545;29;20192;-93
2024/03/25 22:39:03;;;;;;;3.75;1.40;;;9.40;99.90;;;;;;4081411;29;20180;-95
2024/03/25 22:41:20;;;;;;;4.57;1.20;;;9.40;99.90;;;;;;4081549;29;20192;-93
2024/03/25 22:43:33;;;;;;;3.70;1.40;;;9.20;99.90;;;;;;4226816;23;20224;-93
2024/03/25 22:45:35;;;;;;;5.47;1.08;;;9.00;99.90;;;;;;4066639;29;20219;-92
2024/03/25 22:47:39;;;;;;;5.95;2.00;;;8.90;99.90;;;;;;4047662;29;20182;-96
2024/03/25 22:49:41;;;;;;;1.88;1.20;;;8.80;99.90;;;;;;4063336;29;20177;-92
2024/03/25 22:51:42;;;;;;;2.47;1.30;;;8.80;99.90;;;;;;4050527;29;20185;-93
2024/03/25 22:53:46;;;;;;;2.80;1.15;;;8.70;99.90;;;;;;4079680;29;20175;-92
2024/03/25 22:56:12;;;;;;;4.03;0.93;;;8.70;99.90;;;;;;4067151;29;20176;-93
2024/03/25 22:58:16;;;;;;;2.63;1.20;;;8.70;99.90;;;;;;4064219;29;20201;-92
2024/03/25 23:00:20;;;;;;;4.45;1.50;;;8.70;99.90;;;;;;4063414;29;20197;-93
2024/03/25 23:02:35;;;;;;;4.18;1.35;;;8.70;99.90;;;;;;4064534;29;20181;-95
2024/03/25 23:04:36;;;;;;;1.70;1.00;;;8.70;99.90;;;;;;4063163;29;20622;-92
2024/03/25 23:06:55;;;;;;;5.20;0.90;;;8.70;99.90;;;;;;4061777;29;20212;-93
2024/03/25 23:08:56;;;;;;;4.30;1.50;;;8.70;99.90;;;;;;4076462;29;20172;-94
2024/03/25 23:11:17;;;;;;;1.65;0.90;;;8.70;99.90;;;;;;4065977;29;20260;-93
2024/03/25 23:13:18;;;;;;;1.52;1.00;;;8.70;99.90;;;;;;4037019;29;20174;-93
2024/03/25 23:15:19;;;;;;;4.30;1.70;;;8.70;99.90;;;;;;4064196;29;20540;-93
2024/03/25 23:17:21;;;;;;;1.67;0.75;;;8.80;99.90;;;;;;4047986;29;20210;-93
2024/03/25 23:19:22;;;;;;;2.63;1.10;;;8.80;99.90;;;;;;4061232;29;20177;-92
2024/03/25 23:21:31;;;;;;;2.60;1.05;;;8.80;99.90;;;;;;4045332;29;20715;-92
2024/03/25 23:23:35;;;;;;;3.05;0.80;;;8.80;99.90;;;;;;4076646;29;20176;-94
2024/03/25 23:25:37;;;;;;;1.92;0.90;;;8.80;99.90;;;;;;4060652;29;20309;-93
2024/03/25 23:27:43;;;;;;;3.80;0.68;;;8.80;99.90;;;;;;4063637;29;20180;-93
2024/03/25 23:29:44;;;;;;;3.10;1.20;;;8.80;99.90;;;;;;4063737;29;20612;-95
2024/03/25 23:31:46;;;;;;;1.95;0.60;;;8.80;99.90;;;;;;4048403;29;20184;-92
2024/03/25 23:33:46;;;;;;;3.03;0.63;;;8.70;99.90;;;;;;4063540;29;20177;-93
2024/03/25 23:35:52;;;;;;;1.85;0.60;;;8.80;99.90;;;;;;4072746;29;20192;-93
2024/03/25 23:37:58;;;;;;;4.07;1.10;;;8.70;99.90;;;;;;4059759;29;20216;-92
2024/03/25 23:39:59;;;;;;;1.90;0.93;;;8.70;99.90;;;;;;4046162;29;20233;-93
2024/03/25 23:42:04;;;;;;;1.35;0.70;;;8.80;99.90;;;;;;4062380;29;20245;-94
2024/03/25 23:44:05;;;;;;;2.15;0.93;;;8.80;99.90;;;;;;4047061;29;20203;-93
2024/03/25 23:46:42;;;;;;;1.42;0.88;;;8.70;99.90;;;;;;4045943;29;20217;-93
2024/03/25 23:48:36;;;;;;;5.90;0.63;;;8.70;99.90;;;;;;4053696;29;20192;-95
2024/03/25 23:50:43;;;;;;;3.33;1.33;;;8.70;99.90;;;;;;4057933;29;20197;-96
2024/03/25 23:53:07;;;;;;;1.70;0.73;;;8.70;99.90;;;;;;4059708;29;20189;-92
2024/03/25 23:55:33;;;;;;;3.60;0.80;;;8.70;99.90;;;;;;4073682;29;20176;-93
2024/03/25 23:57:35;;;;;;;1.40;0.63;;;8.70;99.90;;;;;;4046551;29;20379;-94
2024/03/25 23:59:36;;;;;;;3.95;0.98;;;8.70;99.90;;;;;;4063909;29;20181;-94
